This site, now in its 15th season, is a labour of love and fun from one of Ottawa's most avid time trialists and number crunchers. It adheres to and is permitted by the laws of Canada, promotes the objectives of every bicycle club whose results are shown, and is donated free of charge by myself for your enjoyment and usage. If you would like results from series you ride in to be shown here, give me (celia@drmath.ca) a shout!


Index Page
ATT OTT WTT AATT CFCTT VVVTT
Help resultformat:
Case-sensitive

OBC Open TT Series - 1993-Jul-08 - 15km (Rockliffe Pkwy) (EvtFactor = 0.9574)

Weather (18:00): Rain Showers, Haze. Temp.: 26.3C, Humidity: 80%, DewPoint: 22.5C, Wind: NE 7km/h, Pressure: 99.84kPa, Visibility: 4.0km, Humidex: 36.
Weather (19:00): Cloudy. Temp.: 26.5C, Humidity: 81%, DewPoint: 23.0C, Wind: E 11km/h, Pressure: 99.80kPa, Visibility: 16.1km, Humidex: 37.
Weather (20:00): Rain Showers. Temp.: 24.1C, Humidity: 84%, DewPoint: 21.2C, Wind: SSE 19km/h, Pressure: 99.90kPa, Visibility: 16.1km, Humidex: 33.

Send photos with description (when/where/what) of yourself on or off of bike to celia@drmath.ca

 
 

BESTS?
 
1 Westwood, Chris --- 19:47 45.493 1/64 OSEM 1/27 1.1847
2 Cowan, Norman  OBC 20:12 44.554 2/64 OVAM 1/16 1.0606
3 Burge, Craig  --- 20:13 44.518 3/64 OSEM 2/27 1.0657
4 Georgas, Chris OBC 20:22 44.190 4/64 OVBM 1/5 1.0703
Metuzals, Peter --- 20:22 44.190 4/64 OVAM 2/16 1.1252
6 Fraser, Ian OBC 20:27 44.010 6/64 OSEM 3/27 1.1273
7 Parkin, Brian --- 20:37 43.654 7/64 OVAM 3/16 1.0848
8 Aller, Brian OBC 20:45 43.373 8/64 OVAM 4/16 1.0169
9 Redding, Neil OBC 20:54 43.062 9/64 OVAM 5/16 0.9576
10 Ferguson, James --- 21:00 42.857 10/64 OSEM 4/27 1.0706
Statchuk, Craig OBC 21:00 42.857 10/64 OVAM 6/16 1.0682
12 St-Amour, Pierre OBC 21:01 42.823 12/64 OVAM 7/16 1.0907
13 Archambault, Marc OBC 21:03 42.755 13/64 OSEM 5/27 1.0507
14 Kemball, Colin OBC 21:05 42.688 14/64 OSEM 6/27 1.1259
15 Moerman, Bram  OBC 21:09 42.553 15/64 OVBM 2/5 1.0286
16 Guenette, Jean-Yves OBC 21:21 42.155 16/64 OVAM 8/16 1.1243
17 Varcoe, Robert --- 21:33 41.763 17/64 OVAM 9/16 1.1947
Y 18 Bachman, Paul & Schofield, Michael --- 21:34 41.731 18/64 TTT 1/2  
19 Johns, Mike --- 21:36 41.667 19/64 OSEM 7/27  
Y 20 Cheney, Jason OBC 21:40 41.538 20/64 OJUM 1/4  
21 Martignago, Mike OBC 21:45 41.379 21/64 OSEM 8/27 1.0161
22 MacDonald, Ryan OBC 21:47 41.316 22/64 OSEM 9/27 1.0115
23 Price, Chris OBC 21:49 41.253 23/64 OSEM 10/27  
24 McCutcheon, Drew OBC 21:52 41.159 24/64 OSEM 11/27 1.0046
Smith, Ed --- 21:52 41.159 24/64 OSEM 11/27  
26 Brady, David OBC 21:54 41.096 26/64 OSEM 13/27 1.3465
27 Jensen, Prapti OBC 21:58 40.971 27/64 OSEF 1/5 1.0046
28 Heffler, Paul OBC 22:00 40.909 28/64 OSEM 14/27 1.1352
29 Buffa, Alex  OBC 22:06 40.724 29/64 OSEM 15/27 0.9776
30 Reinisch, Stephen OBC 22:07 40.693 30/64 OSEM 16/27 1.0553
31 Chen, Jonathan --- 22:08 40.663 31/64 OSEM 17/27 1.1197
32 Montpetit, Stephane OBC 22:22 40.238 32/64 OSEM 18/27 1.0897
33 d'Arras, Robert --- 22:25 40.149 33/64 OVAM 10/16 1.1968
34 Hollywood, Brandon OBC 22:36 39.823 34/64 OSEM 19/27 1.0725
35 Dowd, Sean --- 22:39 39.735 35/64 OVAM 11/16  
Franks, Greg OBC 22:39 39.735 35/64 OSEM 20/27  
37 Bence, John OBC 22:41 39.677 37/64 OSEM 21/27 0.9825
38 Atkins, Brent --- 22:47 39.503 38/64 OSEM 22/27 1.0743
39 Callahan, Luc OBC 22:51 39.387 39/64 OSEM 23/27 1.0694
40 Ménard, Monique OBC 22:56 39.244 40/64 OSEF 2/5 1.1342
41 White, Chris --- 22:57 39.216 41/64 OVAM 12/16 1.0264
42 Bachman, Mike --- 23:00 39.130 42/64 OVBM 3/5 0.9403
43 Revesz, Erika  OBC 23:01 39.102 43/64 OVAF 1/3 1.1267
44 Boileau, Greg OBC 23:16 38.682 44/64 OJUM 2/4 1.0108
45 Padilla, Alberto --- 23:19 38.599 45/64 OVAM 13/16  
46 Montemurro, Mike --- 23:28 38.352 46/64 OSEM 24/27  
47 Norton, Alan --- 23:34 38.190 47/64 OSEM 25/27  
48 Tamborine, Don OBC 23:37 38.109 48/64 OVBM 4/5 0.9790
49 Hicks, Terry OBC 23:50 37.762 49/64 OVAM 14/16 0.9627
50 Arts, Michael OBC 23:53 37.683 50/64 OCAM 1/1 0.7553
51 Lawrence, Ryan --- 23:55 37.631 51/64 OJUM 3/4  
52 Mellon, Allysa & Somogyi, Michel OBC 24:01 37.474 52/64 TTT 2/2  
53 Boissonneault, France OBC 24:10 37.241 53/64 OSEF 3/5 0.9897
54 Yachuk, Dwight OBC 24:21 36.961 54/64 OVAM 15/16 0.8951
55 Howe, Sabrina OBC 24:22 36.936 55/64 OSEF 4/5  
56 DeVidi, Robert  OBC 24:39 36.511 56/64 OSEM 26/27 1.0705
57 Hays, Ryan OBC 24:42 36.437 57/64 U18M 1/1 0.9154
58 McInnis, Celia  OBC 24:49 36.266 58/64 OVAF 2/3 1.0512
59 Moquin, Bruce OBC 25:00 36.000 59/64 OJUM 4/4  
60 Hollywood, Rudy OBC 25:09 35.785 60/64 OVBM 5/5 0.9569
61 Sharman, Killaine --- 25:25 35.410 61/64 OSEF 5/5 0.9650
62 Allen, Brent OBC 25:26 35.387 62/64 OSEM 27/27 1.0479
63 Cole, Warren OBC 26:24 34.091 63/64 OVAM 16/16  
64 Montserrat, Fabienne OBC 26:32 33.920 64/64 OVAF 3/3 1.0832
 
Average Speed of all of the above 64 finishes (960km in 24:05:45):39.841
>>>Average of the Average Speeds for these 64 finishes40.033<<<
 

The number of data records shown above is 64
The server processing of your query took: 1 wallclock secs ( 0.24 usr + 0.05 sys = 0.29 CPU)

Thanks to our Helpers: Denis Fairhead, Glen Cheney.

     


Apr 9 (Good Friday) Apr 15 Apr 22 (cancelled) Apr 27 Apr 29
May 4 (10km) May 6 May 11 May 11 (10km) May 13 (22km) May 16 (40km) May 18 May 18 (10km) May 20 May 25 May 25 (10km) May 27 (38km) May 30 (40km)
Jun 1 Jun 3 Jun 8 Jun 10 (22km) Jun 15 Jun 17 Jun 22 Jun 22 Jun 24 (38km) Jun 25 Jun 27 (40km/80km) Jun 29 Jun 29 Jun 30
Jul 6 Jul 6
  Jul 8  
Jul 13 Jul 13 Jul 15 (38km) Jul 20 Jul 20 Jul 22 Jul 25 (80km) Jul 27 Jul 29 (22km)
Aug 3 Aug 3 Aug 5 Aug 7 (38km) Aug 10 Aug 10 Aug 12 Aug 15 (40km/80km) Aug 17 Aug 19 Aug 21 (22km) Aug 24 Aug 24 Aug 26 Aug 29 (40km) Aug 31 (Invitational)
Sep 2 Sep 7 Sep 9 Sep 14 Sep 16 Sep 25 (40km)

OTT Rankings
Best       Best by category
WTT Rankings for OBC Members
5 Best 15km     5 Best 15km by category
OBC Member Best Three 15km Rankings
Overall     by category
OBC BAR Ranking
Overall     by category     Rider "Consistency-Graph"
ABC BAR Ranking
Overall     by category     Rider "Consistency-Graph"
Other years
TT Calculator All TT People All TT events
ABC Home VVV Home
CKAP GOLD MEDAL
Other Links

Please send your comments and suggestions to: Celia McInnis
Copyright © 1998-2011 Celia McInnis. All rights reserved. Links are welcomed.